createdAt,value
2022-12-15T00:02:20.106Z,13.50
2022-12-15T00:05:05.761Z,14.40
2022-12-15T00:07:51.807Z,13.30
2022-12-15T00:10:37.962Z,14.53
2022-12-15T00:13:29.311Z,14.27
2022-12-15T00:16:15.095Z,13.43
2022-12-15T00:19:01.628Z,14.30
2022-12-15T00:21:47.481Z,13.67
2022-12-15T00:24:32.934Z,14.00
2022-12-15T00:27:18.381Z,13.53
2022-12-15T00:30:03.920Z,13.27
2022-12-15T00:32:49.468Z,12.27
2022-12-15T00:35:36.453Z,13.27
2022-12-15T00:38:26.596Z,14.20
2022-12-15T00:40:58.844Z,13.50
2022-12-15T00:43:27.085Z,12.57
2022-12-15T00:46:12.520Z,13.60
2022-12-15T00:48:40.920Z,14.17
2022-12-15T00:51:09.757Z,13.80
2022-12-15T00:53:55.160Z,12.83
2022-12-15T00:56:40.650Z,15.10
2022-12-15T00:59:26.179Z,13.97
2022-12-15T01:02:11.866Z,15.50
2022-12-15T01:04:57.069Z,13.17
2022-12-15T01:07:44.250Z,15.00
2022-12-15T01:10:35.436Z,14.50
2022-12-15T01:13:20.912Z,13.30
2022-12-15T01:16:06.320Z,14.27
2022-12-15T01:18:52.504Z,13.87
2022-12-15T01:21:24.764Z,14.20
2022-12-15T01:23:54.623Z,14.60
2022-12-15T01:26:22.492Z,13.67
2022-12-15T01:28:50.359Z,12.90
2022-12-15T01:31:18.306Z,13.70
2022-12-15T01:33:46.215Z,13.63
2022-12-15T01:36:14.226Z,13.07
2022-12-15T01:38:42.632Z,13.13
2022-12-15T01:41:12.309Z,13.30
2022-12-15T01:43:41.689Z,13.23
2022-12-15T01:46:11.252Z,13.70
2022-12-15T01:48:43.009Z,13.53
2022-12-15T01:51:18.912Z,12.93
2022-12-15T01:53:54.511Z,13.00
2022-12-15T01:56:25.859Z,13.50
2022-12-15T01:58:58.653Z,14.47
2022-12-15T02:01:26.786Z,12.17
2022-12-15T02:03:54.858Z,12.37
2022-12-15T02:06:25.597Z,11.93
2022-12-15T02:08:55.572Z,12.73
2022-12-15T02:11:39.661Z,12.23
2022-12-15T02:14:09.767Z,11.87
2022-12-15T02:16:54.488Z,13.27
2022-12-15T02:20:03.863Z,12.47
2022-12-15T02:22:47.573Z,12.63
2022-12-15T02:25:40.662Z,12.93
2022-12-15T02:28:14.191Z,13.03
2022-12-15T02:31:07.907Z,12.33
2022-12-15T02:33:38.949Z,11.87
2022-12-15T02:36:13.663Z,11.87
2022-12-15T02:38:42.460Z,11.87
2022-12-15T02:41:35.605Z,11.27
2022-12-15T02:44:08.198Z,12.40
2022-12-15T02:46:50.491Z,12.17
2022-12-15T02:49:24.281Z,12.77
2022-12-15T02:52:05.665Z,12.77
2022-12-15T02:54:58.875Z,12.50
2022-12-15T02:57:37.456Z,11.23
2022-12-15T03:00:07.813Z,11.80
2022-12-15T03:02:39.964Z,12.60
2022-12-15T03:05:09.428Z,12.13
2022-12-15T03:07:37.188Z,12.50
2022-12-15T03:10:07.536Z,12.73
2022-12-15T03:12:35.385Z,13.43
2022-12-15T03:15:03.246Z,12.93
2022-12-15T03:17:31.001Z,13.17
2022-12-15T03:20:00.248Z,12.97
2022-12-15T03:22:28.060Z,13.20
2022-12-15T03:24:55.834Z,12.50
2022-12-15T03:27:23.620Z,13.10
2022-12-15T03:29:51.397Z,12.53
2022-12-15T03:32:19.285Z,12.93
2022-12-15T03:34:47.134Z,13.27
2022-12-15T03:37:16.264Z,13.30
2022-12-15T03:39:44.061Z,13.70
2022-12-15T03:42:12.072Z,12.73
2022-12-15T03:44:39.850Z,14.40
2022-12-15T03:47:07.639Z,13.50
2022-12-15T03:49:35.435Z,12.77
2022-12-15T03:52:03.223Z,14.17
2022-12-15T03:54:32.333Z,14.03
2022-12-15T03:57:00.134Z,13.37
2022-12-15T03:59:27.881Z,13.53
2022-12-15T04:01:55.784Z,14.33
2022-12-15T04:04:23.687Z,13.03
2022-12-15T04:06:51.428Z,14.20
2022-12-15T04:09:19.402Z,12.73
2022-12-15T04:11:48.562Z,14.53
2022-12-15T04:14:16.327Z,14.07
2022-12-15T04:16:44.140Z,13.03
2022-12-15T04:19:29.504Z,14.00
2022-12-15T04:21:57.981Z,12.67
2022-12-15T04:24:43.140Z,13.60
2022-12-15T04:27:29.957Z,12.53
2022-12-15T04:30:15.441Z,12.93
2022-12-15T04:33:00.758Z,12.33
2022-12-15T04:35:46.312Z,13.03
2022-12-15T04:38:35.237Z,12.67
2022-12-15T04:41:20.798Z,12.87
2022-12-15T04:44:07.531Z,12.43
2022-12-15T04:46:52.924Z,13.23
2022-12-15T04:49:38.313Z,13.00
2022-12-15T04:52:23.758Z,12.97
2022-12-15T04:55:09.220Z,13.47
2022-12-15T04:57:54.776Z,14.70
2022-12-15T05:00:41.739Z,13.50
2022-12-15T05:03:27.681Z,13.07
2022-12-15T05:06:13.178Z,12.63
2022-12-15T05:08:58.578Z,12.90
2022-12-15T05:11:44.093Z,13.00
2022-12-15T05:14:29.537Z,12.23
2022-12-15T05:17:16.331Z,12.57
2022-12-15T05:20:01.559Z,12.27
2022-12-15T05:22:47.025Z,11.50
2022-12-15T05:25:32.466Z,12.00
2022-12-15T05:28:17.986Z,12.57
2022-12-15T05:31:03.402Z,12.27
2022-12-15T05:33:33.040Z,13.30
2022-12-15T05:36:01.605Z,13.17
2022-12-15T05:38:29.366Z,12.93
2022-12-15T05:40:59.144Z,12.90
2022-12-15T05:43:27.138Z,13.20
2022-12-15T05:45:55.994Z,13.27
2022-12-15T05:48:23.829Z,13.33
2022-12-15T05:50:52.958Z,13.57
2022-12-15T05:53:20.707Z,14.10
2022-12-15T05:55:48.484Z,12.37
2022-12-15T05:58:16.275Z,13.47
2022-12-15T06:00:44.080Z,13.63
2022-12-15T06:03:11.920Z,13.63
2022-12-15T06:05:40.551Z,12.97
2022-12-15T06:08:09.653Z,13.17
2022-12-15T06:10:37.455Z,12.97
2022-12-15T06:13:05.217Z,13.20
2022-12-15T06:15:32.992Z,12.70
2022-12-15T06:18:00.755Z,13.40
2022-12-15T06:20:28.736Z,13.33
2022-12-15T06:22:56.492Z,13.17
2022-12-15T06:25:25.635Z,12.67
2022-12-15T06:27:58.346Z,13.07
2022-12-15T06:30:29.276Z,14.60
2022-12-15T06:32:57.052Z,14.37
2022-12-15T06:35:24.825Z,14.63
2022-12-15T06:37:52.624Z,13.70
2022-12-15T06:40:20.364Z,14.13
2022-12-15T06:42:49.494Z,13.97
2022-12-15T06:45:17.452Z,14.30
2022-12-15T06:47:45.202Z,14.10
2022-12-15T06:50:12.963Z,13.90
2022-12-15T06:52:41.656Z,14.63
2022-12-15T06:55:10.083Z,15.30
2022-12-15T06:57:38.816Z,14.30
2022-12-15T07:00:09.664Z,14.87
2022-12-15T07:02:37.640Z,15.03
2022-12-15T07:05:06.600Z,14.60
2022-12-15T07:07:34.345Z,14.87
2022-12-15T07:10:02.092Z,14.27
2022-12-15T07:12:29.841Z,15.60
2022-12-15T07:14:57.630Z,14.97
2022-12-15T07:17:26.724Z,14.57
2022-12-15T07:19:54.803Z,15.10
2022-12-15T07:22:22.747Z,14.13
2022-12-15T07:24:50.504Z,15.17
2022-12-15T07:27:18.684Z,13.87
2022-12-15T07:29:46.501Z,14.63
2022-12-15T07:32:15.569Z,15.53
2022-12-15T07:34:44.816Z,15.27
2022-12-15T07:37:12.720Z,14.07
2022-12-15T07:39:40.488Z,15.07
2022-12-15T07:42:08.258Z,15.30
2022-12-15T07:44:36.061Z,13.77
2022-12-15T07:47:03.818Z,13.90
2022-12-15T07:49:31.548Z,13.53
2022-12-15T07:52:00.668Z,14.17
2022-12-15T07:54:29.096Z,14.13
2022-12-15T07:56:56.866Z,14.43
2022-12-15T07:59:24.649Z,13.60
2022-12-15T08:01:53.636Z,12.60
2022-12-15T08:04:21.530Z,14.50
2022-12-15T08:06:49.339Z,14.27
2022-12-15T08:09:19.276Z,14.17
2022-12-15T08:11:47.260Z,13.77
2022-12-15T08:14:17.935Z,13.93
2022-12-15T08:16:46.449Z,14.90
2022-12-15T08:19:16.703Z,14.90
2022-12-15T08:21:46.635Z,15.30
2022-12-15T08:24:15.363Z,15.50
2022-12-15T08:26:50.158Z,15.23
2022-12-15T08:32:07.372Z,14.73
2022-12-15T08:34:35.391Z,14.47
2022-12-15T08:37:03.739Z,13.97
2022-12-15T08:39:31.618Z,13.13
2022-12-15T08:42:00.742Z,16.03
2022-12-15T08:44:28.539Z,15.73
2022-12-15T08:46:56.333Z,16.83
2022-12-15T08:49:24.243Z,15.53
2022-12-15T08:51:52.355Z,14.87
2022-12-15T08:54:21.357Z,15.33
2022-12-15T08:56:49.786Z,15.77
2022-12-15T08:59:18.946Z,15.87
2022-12-15T09:01:46.827Z,15.20
2022-12-15T09:04:15.412Z,14.90
2022-12-15T09:06:43.692Z,17.33
2022-12-15T09:09:14.733Z,16.47
2022-12-15T09:11:42.548Z,14.67
2022-12-15T09:14:10.309Z,15.50
2022-12-15T09:16:39.483Z,14.80
2022-12-15T09:19:08.350Z,15.77
2022-12-15T09:21:36.400Z,15.67
2022-12-15T09:24:05.013Z,14.57
2022-12-15T09:26:34.543Z,16.33
2022-12-15T09:29:02.777Z,15.73
2022-12-15T09:31:32.654Z,17.33
2022-12-15T09:34:02.507Z,18.30
2022-12-15T09:36:32.353Z,16.83
2022-12-15T09:39:02.403Z,16.60
2022-12-15T09:41:32.840Z,17.67
2022-12-15T09:44:03.445Z,19.80
2022-12-15T09:46:40.761Z,17.70
2022-12-15T09:49:17.413Z,17.30
2022-12-15T09:51:52.727Z,19.87
2022-12-15T09:54:22.961Z,19.07
2022-12-15T09:56:56.766Z,19.30
2022-12-15T09:59:32.160Z,19.73
2022-12-15T10:02:23.036Z,18.43
2022-12-15T10:04:57.649Z,18.90
2022-12-15T10:07:31.071Z,19.83
2022-12-15T10:09:59.001Z,19.40
2022-12-15T10:12:31.544Z,19.90
2022-12-15T10:15:11.831Z,16.83
2022-12-15T10:17:48.364Z,18.87
2022-12-15T10:20:21.713Z,18.10
2022-12-15T10:22:50.371Z,16.50
2022-12-15T10:25:27.584Z,18.67
2022-12-15T10:28:16.650Z,17.03
2022-12-15T10:30:52.026Z,17.97
2022-12-15T10:33:22.012Z,16.67
2022-12-15T10:35:54.435Z,16.97
2022-12-15T10:38:31.777Z,16.10
2022-12-15T10:41:03.148Z,16.83
2022-12-15T10:43:35.660Z,16.53
2022-12-15T10:46:14.797Z,16.80
2022-12-15T10:48:43.946Z,14.67
2022-12-15T10:51:21.103Z,15.60
2022-12-15T10:53:52.444Z,15.77
2022-12-15T10:56:28.769Z,14.57
2022-12-15T10:59:01.150Z,16.03
2022-12-15T11:01:31.069Z,15.57
2022-12-15T11:03:59.668Z,16.90
2022-12-15T11:06:32.339Z,16.00
2022-12-15T11:09:10.089Z,18.07
2022-12-15T11:12:05.631Z,17.47
2022-12-15T11:14:44.721Z,17.70
2022-12-15T11:17:17.136Z,17.40
2022-12-15T11:22:47.559Z,15.87
2022-12-15T11:25:25.724Z,14.60
2022-12-15T11:27:57.861Z,14.30
2022-12-15T11:30:30.288Z,15.30
2022-12-15T11:33:00.984Z,12.97
2022-12-15T11:35:40.511Z,14.20
2022-12-15T11:38:19.889Z,16.47
2022-12-15T11:40:47.823Z,14.83
2022-12-15T11:43:35.193Z,15.40
2022-12-15T11:46:17.203Z,15.23
2022-12-15T11:48:58.352Z,15.33
2022-12-15T11:51:33.869Z,14.60
2022-12-15T11:54:16.568Z,13.97
2022-12-15T11:56:49.058Z,15.10
2022-12-15T11:59:44.592Z,14.07
2022-12-15T12:02:33.445Z,14.97
2022-12-15T12:05:23.386Z,14.73
2022-12-15T12:07:53.915Z,13.43
2022-12-15T12:10:36.404Z,13.50
2022-12-15T12:13:15.939Z,12.93
2022-12-15T12:15:55.520Z,14.90
2022-12-15T12:18:28.518Z,15.77
2022-12-15T12:21:01.730Z,15.83
2022-12-15T12:23:37.238Z,14.37
2022-12-15T12:26:11.219Z,15.33
2022-12-15T12:28:48.827Z,16.50
2022-12-15T12:31:26.177Z,15.63
2022-12-15T12:33:59.623Z,14.13
2022-12-15T12:36:27.583Z,13.60
2022-12-15T12:38:58.004Z,15.47
2022-12-15T12:41:37.296Z,15.20
2022-12-15T12:44:12.963Z,14.20
2022-12-15T12:46:46.701Z,14.23
2022-12-15T12:49:26.822Z,13.90
2022-12-15T12:51:58.511Z,15.80
2022-12-15T12:54:47.827Z,14.97
2022-12-15T12:57:35.323Z,14.47
2022-12-15T13:00:13.965Z,13.53
2022-12-15T13:02:58.052Z,14.67
2022-12-15T13:05:32.218Z,19.27
2022-12-15T13:12:15.054Z,16.97
2022-12-15T13:14:51.998Z,14.57
2022-12-15T13:17:30.159Z,14.97
2022-12-15T13:20:25.835Z,16.17
2022-12-15T13:22:54.632Z,15.47
2022-12-15T13:25:37.631Z,16.30
2022-12-15T13:28:20.424Z,14.27
2022-12-15T13:31:28.465Z,14.20
2022-12-15T13:34:02.200Z,14.60
2022-12-15T13:36:55.462Z,15.77
2022-12-15T13:39:56.889Z,16.27
2022-12-15T13:42:52.973Z,16.53
2022-12-15T13:45:42.968Z,15.33
2022-12-15T13:48:31.253Z,15.40
2022-12-15T13:51:14.332Z,17.40
2022-12-15T13:53:45.483Z,17.63
2022-12-15T13:56:40.845Z,14.93
2022-12-15T13:59:21.237Z,16.37
2022-12-15T14:01:51.291Z,17.43
2022-12-15T14:04:21.711Z,16.83
2022-12-15T14:06:52.644Z,18.90
2022-12-15T14:09:28.603Z,19.57
2022-12-15T14:11:56.703Z,20.47
2022-12-15T14:14:28.626Z,20.77
2022-12-15T14:17:00.197Z,19.90
2022-12-15T14:19:38.860Z,20.10
2022-12-15T14:25:19.023Z,18.00
2022-12-15T14:27:50.833Z,15.80
2022-12-15T14:30:29.190Z,18.90
2022-12-15T14:33:02.633Z,16.57
2022-12-15T14:35:37.337Z,17.47
2022-12-15T14:38:09.089Z,17.90
2022-12-15T14:40:38.563Z,17.83
2022-12-15T14:43:10.359Z,18.73
2022-12-15T14:45:38.404Z,18.50
2022-12-15T14:51:01.546Z,17.87
2022-12-15T14:53:33.496Z,17.13
2022-12-15T14:56:14.799Z,16.83
2022-12-15T14:58:43.111Z,16.60
2022-12-15T15:01:24.663Z,17.53
2022-12-15T15:03:09.090Z,15.80
2022-12-15T15:03:09.494Z,19.20
2022-12-15T15:03:12.903Z,18.65
2022-12-15T15:04:00.680Z,16.37
2022-12-15T15:06:36.550Z,16.77
2022-12-15T15:09:17.548Z,15.73
2022-12-15T15:11:45.838Z,16.07
2022-12-15T15:14:17.913Z,16.20
2022-12-15T15:16:46.320Z,15.10
2022-12-15T15:19:21.637Z,14.77
2022-12-15T15:21:50.803Z,15.90
2022-12-15T15:24:30.539Z,16.50
2022-12-15T15:27:24.650Z,16.20
2022-12-15T15:29:52.853Z,17.57
2022-12-15T15:32:25.027Z,16.43
2022-12-15T15:34:52.828Z,15.37
2022-12-15T15:37:25.456Z,15.27
2022-12-15T15:39:55.961Z,16.77
2022-12-15T15:42:27.897Z,16.40
2022-12-15T15:45:00.094Z,15.77
2022-12-15T15:47:28.509Z,16.00
2022-12-15T15:49:59.468Z,15.80
2022-12-15T15:52:31.833Z,16.90
2022-12-15T15:54:59.968Z,18.07
2022-12-15T15:57:27.708Z,17.97
2022-12-15T15:59:55.570Z,17.63
2022-12-15T16:02:23.627Z,18.73
2022-12-15T16:04:51.528Z,18.50
2022-12-15T16:07:24.074Z,18.47
2022-12-15T16:09:54.293Z,18.07
2022-12-15T16:12:28.984Z,17.63
2022-12-15T16:14:57.371Z,18.07
2022-12-15T16:17:25.445Z,17.90
2022-12-15T16:19:53.308Z,18.33
2022-12-15T16:22:22.678Z,18.30
2022-12-15T16:24:50.617Z,18.93
2022-12-15T16:27:19.785Z,19.03
2022-12-15T16:29:47.534Z,20.33
2022-12-15T16:32:15.412Z,20.20
2022-12-15T16:34:43.183Z,19.03
2022-12-15T16:37:22.241Z,18.27
2022-12-15T16:39:50.043Z,19.23
2022-12-15T16:42:19.151Z,19.17
2022-12-15T16:44:46.964Z,20.90
2022-12-15T16:47:14.713Z,20.50
2022-12-15T16:49:42.558Z,19.20
2022-12-15T16:52:19.361Z,21.97
2022-12-15T16:54:48.972Z,20.93
2022-12-15T16:57:16.854Z,25.67
2022-12-15T16:59:45.987Z,23.80
2022-12-15T17:02:27.971Z,25.93
2022-12-15T17:04:56.081Z,28.67
2022-12-15T17:07:26.051Z,27.83
2022-12-15T17:09:53.884Z,28.33
2022-12-15T17:12:21.712Z,24.87
2022-12-15T17:14:50.791Z,21.70
2022-12-15T17:17:20.415Z,20.67
2022-12-15T17:20:19.708Z,19.73
2022-12-15T17:22:37.558Z,18.63
2022-12-15T17:25:06.135Z,20.53
2022-12-15T17:27:33.949Z,24.37
2022-12-15T17:30:03.504Z,26.37
2022-12-15T17:32:31.287Z,28.20
2022-12-15T17:34:59.081Z,29.27
2022-12-15T17:37:30.557Z,26.40
2022-12-15T17:40:03.117Z,21.80
2022-12-15T17:42:30.872Z,19.97
2022-12-15T17:44:58.742Z,19.77
2022-12-15T17:47:30.265Z,19.33
2022-12-15T17:49:58.027Z,19.63
2022-12-15T17:52:28.986Z,19.83
2022-12-15T17:54:57.416Z,19.83
2022-12-15T17:57:25.635Z,20.37
2022-12-15T17:59:53.867Z,18.73
2022-12-15T18:02:21.736Z,19.13
2022-12-15T18:04:50.969Z,17.73
2022-12-15T18:07:21.012Z,15.30
2022-12-15T18:09:49.679Z,16.17
2022-12-15T18:12:19.560Z,15.77
2022-12-15T18:14:47.689Z,16.43
2022-12-15T18:17:15.743Z,17.47
2022-12-15T18:19:43.527Z,17.43
2022-12-15T18:22:15.213Z,20.13
2022-12-15T18:24:43.092Z,20.27
2022-12-15T18:27:23.192Z,20.47
2022-12-15T18:29:51.161Z,21.10
2022-12-15T18:32:20.227Z,29.57
2022-12-15T18:34:48.007Z,28.60
2022-12-15T18:37:19.097Z,27.13
2022-12-15T18:39:47.593Z,24.07
2022-12-15T18:42:17.329Z,23.27
2022-12-15T18:44:48.751Z,20.47
2022-12-15T18:47:18.041Z,20.47
2022-12-15T18:49:46.288Z,19.40
2022-12-15T18:52:18.763Z,17.30
2022-12-15T18:54:47.672Z,17.73
2022-12-15T18:57:27.802Z,16.37
2022-12-15T18:59:58.278Z,13.10
2022-12-15T19:02:26.113Z,12.23
2022-12-15T19:04:54.019Z,10.37
2022-12-15T19:07:23.179Z,9.30
2022-12-15T19:09:51.492Z,8.60
2022-12-15T19:12:19.554Z,7.40
2022-12-15T19:14:48.799Z,7.10
2022-12-15T19:17:35.675Z,5.67
2022-12-15T19:20:23.349Z,5.57
2022-12-15T19:22:53.182Z,5.07
2022-12-15T19:25:26.151Z,5.57
2022-12-15T19:27:58.489Z,5.63
2022-12-15T19:30:28.691Z,5.30
2022-12-15T19:32:59.383Z,6.17
2022-12-15T19:35:28.940Z,5.53
2022-12-15T19:37:59.697Z,5.47
2022-12-15T19:40:30.089Z,4.23
2022-12-15T19:42:58.256Z,5.03
2022-12-15T19:45:27.780Z,5.27
2022-12-15T19:47:55.892Z,5.20
2022-12-15T19:50:25.895Z,5.77
2022-12-15T19:52:58.609Z,5.23
2022-12-15T19:55:29.220Z,5.93
2022-12-15T19:57:57.019Z,5.50
2022-12-15T20:00:25.681Z,5.47
2022-12-15T20:02:55.657Z,5.53
2022-12-15T20:05:24.740Z,5.60
2022-12-15T20:07:53.422Z,5.80
2022-12-15T20:10:31.707Z,5.73
2022-12-15T20:13:00.643Z,5.00
2022-12-15T20:15:28.728Z,6.13
2022-12-15T20:17:57.213Z,5.20
2022-12-15T20:20:27.235Z,6.30
2022-12-15T20:22:57.523Z,6.43
2022-12-15T20:25:28.888Z,6.67
2022-12-15T20:27:56.701Z,6.57
2022-12-15T20:30:26.795Z,7.13
2022-12-15T20:32:55.876Z,6.73
2022-12-15T20:35:23.882Z,7.20
2022-12-15T20:37:52.480Z,7.97
2022-12-15T20:40:23.492Z,7.30
2022-12-15T20:42:53.879Z,7.30
2022-12-15T20:45:24.316Z,7.50
2022-12-15T20:47:54.383Z,7.70
2022-12-15T20:50:26.761Z,6.87
2022-12-15T20:52:55.469Z,7.70
2022-12-15T20:55:23.282Z,8.43
2022-12-15T20:57:52.424Z,7.40
2022-12-15T21:00:20.665Z,6.93
2022-12-15T21:02:49.700Z,7.27
2022-12-15T21:05:22.313Z,8.00
2022-12-15T21:07:50.605Z,8.80
2022-12-15T21:10:20.674Z,8.47
2022-12-15T21:12:50.418Z,7.83
2022-12-15T21:15:22.209Z,8.20
2022-12-15T21:18:03.874Z,8.70
2022-12-15T21:20:40.958Z,8.13
2022-12-15T21:23:18.397Z,8.60
2022-12-15T21:25:46.437Z,7.57
2022-12-15T21:28:14.528Z,8.00
2022-12-15T21:30:44.108Z,7.30
2022-12-15T21:33:11.929Z,7.87
2022-12-15T21:35:40.720Z,8.33
2022-12-15T21:38:26.796Z,7.40
2022-12-15T21:40:59.620Z,7.47
2022-12-15T21:43:31.188Z,7.33
2022-12-15T21:46:01.706Z,7.90
2022-12-15T21:48:47.283Z,7.77
2022-12-15T21:51:17.380Z,7.10
2022-12-15T21:53:47.209Z,7.10
2022-12-15T21:56:16.923Z,7.43
2022-12-15T21:58:45.858Z,7.70
2022-12-15T22:01:16.576Z,7.63
2022-12-15T22:03:49.259Z,7.13
2022-12-15T22:06:21.535Z,7.63
2022-12-15T22:08:49.662Z,7.80
2022-12-15T22:11:22.320Z,7.07
2022-12-15T22:13:52.593Z,7.87
2022-12-15T22:16:24.569Z,7.77
2022-12-15T22:18:54.888Z,7.67
2022-12-15T22:21:22.980Z,7.37
2022-12-15T22:23:51.076Z,8.37
2022-12-15T22:26:22.459Z,8.33
2022-12-15T22:28:50.875Z,8.13
2022-12-15T22:31:19.689Z,7.83
2022-12-15T22:33:48.916Z,7.43
2022-12-15T22:36:16.702Z,8.90
2022-12-15T22:38:45.031Z,8.80
2022-12-15T22:41:19.302Z,8.13
2022-12-15T22:43:52.116Z,7.80
2022-12-15T22:46:21.800Z,7.53
2022-12-15T22:48:54.674Z,9.33
2022-12-15T22:51:22.985Z,9.10
2022-12-15T22:53:50.742Z,7.37
2022-12-15T22:56:25.503Z,8.33
2022-12-15T22:58:57.383Z,7.93
2022-12-15T23:01:26.715Z,7.90
2022-12-15T23:03:56.439Z,6.80
2022-12-15T23:06:24.795Z,7.17
2022-12-15T23:08:55.818Z,7.50
2022-12-15T23:11:39.390Z,7.80
2022-12-15T23:14:09.072Z,8.10
2022-12-15T23:16:37.067Z,6.90
2022-12-15T23:19:07.686Z,7.50
2022-12-15T23:21:36.972Z,7.23
2022-12-15T23:24:04.923Z,7.40
2022-12-15T23:26:32.793Z,7.33
2022-12-15T23:29:00.579Z,7.60
2022-12-15T23:31:28.807Z,7.83
2022-12-15T23:33:56.701Z,7.67
2022-12-15T23:36:25.841Z,7.93
2022-12-15T23:38:54.939Z,7.30
2022-12-15T23:41:22.695Z,7.10
2022-12-15T23:43:50.492Z,7.67
2022-12-15T23:46:18.990Z,8.07
2022-12-15T23:48:47.412Z,7.67
2022-12-15T23:51:16.751Z,7.80
2022-12-15T23:53:47.920Z,7.73
2022-12-15T23:56:18.161Z,7.23
2022-12-15T23:58:48.855Z,7.43
